sensor_id;sensor_type;location;lat;lon;timestamp;P1;durP1;ratioP1;P2;durP2;ratioP2
43435;SDS011;36399;51.444;-2.018;2023-02-18T00:02:18;3.87;;;0.47;;
43435;SDS011;36399;51.444;-2.018;2023-02-18T00:04:44;2.30;;;0.60;;
43435;SDS011;36399;51.444;-2.018;2023-02-18T00:07:09;3.63;;;0.80;;
43435;SDS011;36399;51.444;-2.018;2023-02-18T00:09:37;5.57;;;1.20;;
43435;SDS011;36399;51.444;-2.018;2023-02-18T00:12:03;3.70;;;0.50;;
43435;SDS011;36399;51.444;-2.018;2023-02-18T00:14:30;0.93;;;0.43;;
43435;SDS011;36399;51.444;-2.018;2023-02-18T00:16:56;4.93;;;0.60;;
43435;SDS011;36399;51.444;-2.018;2023-02-18T00:19:22;0.77;;;0.40;;
43435;SDS011;36399;51.444;-2.018;2023-02-18T00:21:48;2.00;;;0.37;;
43435;SDS011;36399;51.444;-2.018;2023-02-18T00:24:14;1.63;;;0.33;;
43435;SDS011;36399;51.444;-2.018;2023-02-18T00:26:41;1.80;;;0.33;;
43435;SDS011;36399;51.444;-2.018;2023-02-18T00:29:07;1.50;;;0.40;;
43435;SDS011;36399;51.444;-2.018;2023-02-18T00:31:34;1.17;;;0.50;;
43435;SDS011;36399;51.444;-2.018;2023-02-18T00:34:02;2.00;;;1.47;;
43435;SDS011;36399;51.444;-2.018;2023-02-18T00:36:29;0.97;;;0.50;;
43435;SDS011;36399;51.444;-2.018;2023-02-18T00:38:59;2.73;;;0.40;;
43435;SDS011;36399;51.444;-2.018;2023-02-18T00:41:26;3.60;;;0.50;;
43435;SDS011;36399;51.444;-2.018;2023-02-18T00:43:53;2.53;;;0.73;;
43435;SDS011;36399;51.444;-2.018;2023-02-18T00:46:20;0.87;;;0.20;;
43435;SDS011;36399;51.444;-2.018;2023-02-18T00:48:47;1.83;;;0.23;;
43435;SDS011;36399;51.444;-2.018;2023-02-18T00:51:12;1.03;;;0.23;;
43435;SDS011;36399;51.444;-2.018;2023-02-18T00:53:38;2.27;;;0.40;;
43435;SDS011;36399;51.444;-2.018;2023-02-18T00:56:05;1.67;;;0.20;;
43435;SDS011;36399;51.444;-2.018;2023-02-18T00:58:32;2.33;;;0.30;;
43435;SDS011;36399;51.444;-2.018;2023-02-18T01:00:58;5.10;;;0.80;;
43435;SDS011;36399;51.444;-2.018;2023-02-18T01:03:25;1.93;;;0.30;;
43435;SDS011;36399;51.444;-2.018;2023-02-18T01:05:52;3.23;;;1.90;;
43435;SDS011;36399;51.444;-2.018;2023-02-18T01:08:19;3.53;;;0.73;;
43435;SDS011;36399;51.444;-2.018;2023-02-18T01:10:47;5.67;;;0.63;;
43435;SDS011;36399;51.444;-2.018;2023-02-18T01:13:14;3.03;;;0.60;;
43435;SDS011;36399;51.444;-2.018;2023-02-18T01:15:41;1.17;;;0.30;;
43435;SDS011;36399;51.444;-2.018;2023-02-18T01:18:08;1.77;;;0.40;;
43435;SDS011;36399;51.444;-2.018;2023-02-18T01:20:35;7.27;;;1.20;;
43435;SDS011;36399;51.444;-2.018;2023-02-18T01:23:01;1.73;;;0.50;;
43435;SDS011;36399;51.444;-2.018;2023-02-18T01:25:28;3.43;;;0.50;;
43435;SDS011;36399;51.444;-2.018;2023-02-18T01:27:57;4.07;;;0.60;;
43435;SDS011;36399;51.444;-2.018;2023-02-18T01:30:23;3.27;;;0.80;;
43435;SDS011;36399;51.444;-2.018;2023-02-18T01:32:49;4.33;;;0.80;;
43435;SDS011;36399;51.444;-2.018;2023-02-18T01:35:16;5.93;;;0.83;;
43435;SDS011;36399;51.444;-2.018;2023-02-18T01:37:43;3.30;;;1.00;;
43435;SDS011;36399;51.444;-2.018;2023-02-18T01:40:11;5.63;;;1.00;;
43435;SDS011;36399;51.444;-2.018;2023-02-18T01:42:42;7.07;;;0.63;;
43435;SDS011;36399;51.444;-2.018;2023-02-18T01:48:21;1.27;;;0.47;;
43435;SDS011;36399;51.444;-2.018;2023-02-18T01:50:56;2.23;;;0.90;;
43435;SDS011;36399;51.444;-2.018;2023-02-18T01:53:27;4.53;;;0.93;;
43435;SDS011;36399;51.444;-2.018;2023-02-18T01:55:58;2.43;;;0.63;;
43435;SDS011;36399;51.444;-2.018;2023-02-18T01:58:28;7.43;;;1.47;;
43435;SDS011;36399;51.444;-2.018;2023-02-18T02:00:54;2.93;;;0.63;;
43435;SDS011;36399;51.444;-2.018;2023-02-18T02:03:20;5.00;;;0.80;;
43435;SDS011;36399;51.444;-2.018;2023-02-18T02:05:46;3.40;;;0.87;;
43435;SDS011;36399;51.444;-2.018;2023-02-18T02:08:11;2.40;;;0.53;;
43435;SDS011;36399;51.444;-2.018;2023-02-18T02:11:02;3.53;;;0.77;;
43435;SDS011;36399;51.444;-2.018;2023-02-18T02:24:42;4.70;;;0.90;;
43435;SDS011;36399;51.444;-2.018;2023-02-18T02:30:35;5.82;;;1.08;;
43435;SDS011;36399;51.444;-2.018;2023-02-18T02:38:27;2.20;;;0.70;;
43435;SDS011;36399;51.444;-2.018;2023-02-18T02:46:17;6.65;;;0.70;;
43435;SDS011;36399;51.444;-2.018;2023-02-18T02:49:02;1.63;;;0.50;;
43435;SDS011;36399;51.444;-2.018;2023-02-18T02:54:19;1.83;;;0.60;;
43435;SDS011;36399;51.444;-2.018;2023-02-18T02:56:47;2.13;;;0.50;;
43435;SDS011;36399;51.444;-2.018;2023-02-18T02:59:15;1.53;;;1.07;;
43435;SDS011;36399;51.444;-2.018;2023-02-18T03:10:10;2.70;;;0.97;;
43435;SDS011;36399;51.444;-2.018;2023-02-18T03:20:50;3.67;;;0.60;;
43435;SDS011;36399;51.444;-2.018;2023-02-18T03:23:28;1.23;;;0.80;;
43435;SDS011;36399;51.444;-2.018;2023-02-18T03:25:59;7.33;;;2.20;;
43435;SDS011;36399;51.444;-2.018;2023-02-18T03:28:29;1.47;;;0.40;;
43435;SDS011;36399;51.444;-2.018;2023-02-18T03:31:15;2.70;;;0.60;;
43435;SDS011;36399;51.444;-2.018;2023-02-18T03:33:50;3.37;;;0.60;;
43435;SDS011;36399;51.444;-2.018;2023-02-18T03:36:21;3.33;;;0.70;;
43435;SDS011;36399;51.444;-2.018;2023-02-18T03:38:50;7.33;;;0.77;;
43435;SDS011;36399;51.444;-2.018;2023-02-18T03:41:20;4.38;;;0.52;;
43435;SDS011;36399;51.444;-2.018;2023-02-18T03:43:50;4.40;;;0.93;;
43435;SDS011;36399;51.444;-2.018;2023-02-18T03:46:16;2.43;;;1.00;;
43435;SDS011;36399;51.444;-2.018;2023-02-18T03:48:43;1.27;;;0.20;;
43435;SDS011;36399;51.444;-2.018;2023-02-18T03:51:09;2.80;;;0.47;;
43435;SDS011;36399;51.444;-2.018;2023-02-18T03:53:35;1.63;;;0.40;;
43435;SDS011;36399;51.444;-2.018;2023-02-18T03:56:02;3.60;;;0.70;;
43435;SDS011;36399;51.444;-2.018;2023-02-18T03:58:28;1.37;;;0.50;;
43435;SDS011;36399;51.444;-2.018;2023-02-18T04:00:54;1.57;;;0.60;;
43435;SDS011;36399;51.444;-2.018;2023-02-18T04:03:20;2.47;;;0.50;;
43435;SDS011;36399;51.444;-2.018;2023-02-18T04:05:46;2.60;;;0.60;;
43435;SDS011;36399;51.444;-2.018;2023-02-18T04:08:12;3.63;;;0.50;;
43435;SDS011;36399;51.444;-2.018;2023-02-18T04:10:38;3.87;;;1.07;;
43435;SDS011;36399;51.444;-2.018;2023-02-18T04:13:04;0.90;;;0.60;;
43435;SDS011;36399;51.444;-2.018;2023-02-18T04:15:30;2.53;;;0.63;;
43435;SDS011;36399;51.444;-2.018;2023-02-18T04:17:56;2.13;;;0.80;;
43435;SDS011;36399;51.444;-2.018;2023-02-18T04:20:22;4.13;;;0.40;;
43435;SDS011;36399;51.444;-2.018;2023-02-18T04:22:48;5.53;;;1.10;;
43435;SDS011;36399;51.444;-2.018;2023-02-18T04:25:14;1.30;;;0.70;;
43435;SDS011;36399;51.444;-2.018;2023-02-18T04:27:40;4.43;;;0.80;;
43435;SDS011;36399;51.444;-2.018;2023-02-18T04:30:06;4.50;;;0.80;;
43435;SDS011;36399;51.444;-2.018;2023-02-18T04:32:32;0.90;;;0.30;;
43435;SDS011;36399;51.444;-2.018;2023-02-18T04:34:58;2.90;;;0.50;;
43435;SDS011;36399;51.444;-2.018;2023-02-18T04:37:24;1.83;;;0.40;;
43435;SDS011;36399;51.444;-2.018;2023-02-18T04:39:50;1.80;;;0.80;;
43435;SDS011;36399;51.444;-2.018;2023-02-18T04:42:16;2.50;;;0.60;;
43435;SDS011;36399;51.444;-2.018;2023-02-18T04:44:42;3.13;;;0.63;;
43435;SDS011;36399;51.444;-2.018;2023-02-18T04:47:08;3.13;;;0.50;;
43435;SDS011;36399;51.444;-2.018;2023-02-18T04:49:34;4.30;;;0.80;;
43435;SDS011;36399;51.444;-2.018;2023-02-18T04:52:00;6.47;;;0.70;;
43435;SDS011;36399;51.444;-2.018;2023-02-18T04:54:26;3.57;;;0.83;;
43435;SDS011;36399;51.444;-2.018;2023-02-18T04:56:52;2.87;;;0.60;;
43435;SDS011;36399;51.444;-2.018;2023-02-18T04:59:18;5.50;;;0.80;;
43435;SDS011;36399;51.444;-2.018;2023-02-18T05:01:44;2.37;;;0.60;;
43435;SDS011;36399;51.444;-2.018;2023-02-18T05:04:10;3.13;;;0.53;;
43435;SDS011;36399;51.444;-2.018;2023-02-18T05:06:35;3.37;;;0.70;;
43435;SDS011;36399;51.444;-2.018;2023-02-18T05:09:04;7.87;;;0.90;;
43435;SDS011;36399;51.444;-2.018;2023-02-18T05:11:31;4.73;;;0.70;;
43435;SDS011;36399;51.444;-2.018;2023-02-18T05:13:57;2.33;;;0.67;;
43435;SDS011;36399;51.444;-2.018;2023-02-18T05:16:22;2.73;;;1.00;;
43435;SDS011;36399;51.444;-2.018;2023-02-18T05:18:48;2.10;;;0.60;;
43435;SDS011;36399;51.444;-2.018;2023-02-18T05:21:14;2.07;;;0.53;;
43435;SDS011;36399;51.444;-2.018;2023-02-18T05:23:40;5.57;;;1.10;;
43435;SDS011;36399;51.444;-2.018;2023-02-18T05:26:06;2.67;;;0.97;;
43435;SDS011;36399;51.444;-2.018;2023-02-18T05:28:32;0.10;;;0.10;;
43435;SDS011;36399;51.444;-2.018;2023-02-18T05:30:58;4.07;;;0.60;;
43435;SDS011;36399;51.444;-2.018;2023-02-18T05:33:24;3.43;;;0.67;;
43435;SDS011;36399;51.444;-2.018;2023-02-18T05:35:50;2.47;;;0.73;;
43435;SDS011;36399;51.444;-2.018;2023-02-18T05:38:16;3.87;;;1.00;;
43435;SDS011;36399;51.444;-2.018;2023-02-18T05:40:42;6.73;;;1.47;;
43435;SDS011;36399;51.444;-2.018;2023-02-18T05:43:08;1.33;;;0.43;;
43435;SDS011;36399;51.444;-2.018;2023-02-18T05:45:34;5.97;;;1.53;;
43435;SDS011;36399;51.444;-2.018;2023-02-18T05:48:00;3.27;;;0.70;;
43435;SDS011;36399;51.444;-2.018;2023-02-18T05:50:26;4.50;;;1.83;;
43435;SDS011;36399;51.444;-2.018;2023-02-18T05:52:52;4.00;;;0.80;;
43435;SDS011;36399;51.444;-2.018;2023-02-18T05:55:18;1.97;;;0.90;;
43435;SDS011;36399;51.444;-2.018;2023-02-18T05:57:44;6.00;;;1.30;;
43435;SDS011;36399;51.444;-2.018;2023-02-18T06:00:10;5.17;;;2.13;;
43435;SDS011;36399;51.444;-2.018;2023-02-18T06:02:37;1.53;;;0.60;;
43435;SDS011;36399;51.444;-2.018;2023-02-18T06:05:03;3.50;;;0.53;;
43435;SDS011;36399;51.444;-2.018;2023-02-18T06:07:30;5.30;;;0.90;;
43435;SDS011;36399;51.444;-2.018;2023-02-18T06:09:56;3.03;;;0.83;;
43435;SDS011;36399;51.444;-2.018;2023-02-18T06:12:22;7.37;;;1.60;;
43435;SDS011;36399;51.444;-2.018;2023-02-18T06:14:48;4.53;;;1.43;;
43435;SDS011;36399;51.444;-2.018;2023-02-18T06:17:14;3.43;;;1.73;;
43435;SDS011;36399;51.444;-2.018;2023-02-18T06:19:40;4.13;;;0.70;;
43435;SDS011;36399;51.444;-2.018;2023-02-18T06:22:06;6.87;;;0.90;;
43435;SDS011;36399;51.444;-2.018;2023-02-18T06:24:32;1.80;;;0.57;;
43435;SDS011;36399;51.444;-2.018;2023-02-18T06:26:58;3.43;;;0.80;;
43435;SDS011;36399;51.444;-2.018;2023-02-18T06:29:25;3.17;;;1.50;;
43435;SDS011;36399;51.444;-2.018;2023-02-18T06:31:51;2.80;;;0.70;;
43435;SDS011;36399;51.444;-2.018;2023-02-18T06:34:17;6.50;;;0.83;;
43435;SDS011;36399;51.444;-2.018;2023-02-18T06:36:43;3.07;;;0.60;;
43435;SDS011;36399;51.444;-2.018;2023-02-18T06:39:09;2.73;;;0.53;;
43435;SDS011;36399;51.444;-2.018;2023-02-18T06:41:34;2.40;;;0.47;;
43435;SDS011;36399;51.444;-2.018;2023-02-18T06:44:00;3.53;;;0.73;;
43435;SDS011;36399;51.444;-2.018;2023-02-18T06:46:26;3.23;;;1.00;;
43435;SDS011;36399;51.444;-2.018;2023-02-18T06:48:52;5.83;;;1.37;;
43435;SDS011;36399;51.444;-2.018;2023-02-18T06:51:18;3.53;;;0.50;;
43435;SDS011;36399;51.444;-2.018;2023-02-18T06:53:44;4.97;;;0.67;;
43435;SDS011;36399;51.444;-2.018;2023-02-18T06:56:10;4.87;;;0.67;;
43435;SDS011;36399;51.444;-2.018;2023-02-18T06:58:37;4.03;;;0.73;;
43435;SDS011;36399;51.444;-2.018;2023-02-18T07:01:03;2.03;;;0.60;;
43435;SDS011;36399;51.444;-2.018;2023-02-18T07:03:29;3.53;;;0.90;;
43435;SDS011;36399;51.444;-2.018;2023-02-18T07:05:55;5.33;;;0.93;;
43435;SDS011;36399;51.444;-2.018;2023-02-18T07:08:21;3.40;;;0.93;;
43435;SDS011;36399;51.444;-2.018;2023-02-18T07:10:47;1.50;;;0.63;;
43435;SDS011;36399;51.444;-2.018;2023-02-18T07:13:14;2.97;;;0.50;;
43435;SDS011;36399;51.444;-2.018;2023-02-18T07:15:40;3.83;;;0.70;;
43435;SDS011;36399;51.444;-2.018;2023-02-18T07:18:06;2.83;;;0.60;;
43435;SDS011;36399;51.444;-2.018;2023-02-18T07:20:32;2.33;;;0.60;;
43435;SDS011;36399;51.444;-2.018;2023-02-18T07:22:58;1.67;;;0.30;;
43435;SDS011;36399;51.444;-2.018;2023-02-18T07:25:24;3.77;;;0.80;;
43435;SDS011;36399;51.444;-2.018;2023-02-18T07:27:50;2.77;;;0.50;;
43435;SDS011;36399;51.444;-2.018;2023-02-18T07:30:17;1.23;;;0.50;;
43435;SDS011;36399;51.444;-2.018;2023-02-18T07:32:44;2.43;;;1.50;;
43435;SDS011;36399;51.444;-2.018;2023-02-18T07:35:12;2.73;;;1.43;;
43435;SDS011;36399;51.444;-2.018;2023-02-18T07:37:42;0.53;;;0.20;;
43435;SDS011;36399;51.444;-2.018;2023-02-18T07:40:11;1.03;;;0.40;;
43435;SDS011;36399;51.444;-2.018;2023-02-18T07:42:39;0.93;;;0.50;;
43435;SDS011;36399;51.444;-2.018;2023-02-18T07:45:05;1.03;;;0.37;;
43435;SDS011;36399;51.444;-2.018;2023-02-18T07:47:32;1.63;;;0.37;;
43435;SDS011;36399;51.444;-2.018;2023-02-18T07:49:58;1.10;;;0.20;;
43435;SDS011;36399;51.444;-2.018;2023-02-18T07:52:24;1.23;;;0.10;;
43435;SDS011;36399;51.444;-2.018;2023-02-18T07:54:50;1.07;;;0.20;;
43435;SDS011;36399;51.444;-2.018;2023-02-18T07:57:15;3.33;;;0.43;;
43435;SDS011;36399;51.444;-2.018;2023-02-18T07:59:41;0.73;;;0.20;;
43435;SDS011;36399;51.444;-2.018;2023-02-18T08:02:11;0.77;;;0.27;;
43435;SDS011;36399;51.444;-2.018;2023-02-18T08:04:43;1.57;;;0.40;;
43435;SDS011;36399;51.444;-2.018;2023-02-18T08:07:16;2.13;;;0.70;;
43435;SDS011;36399;51.444;-2.018;2023-02-18T08:09:46;1.73;;;0.50;;
43435;SDS011;36399;51.444;-2.018;2023-02-18T08:12:15;1.03;;;0.33;;
43435;SDS011;36399;51.444;-2.018;2023-02-18T08:14:41;0.70;;;0.37;;
43435;SDS011;36399;51.444;-2.018;2023-02-18T08:17:07;1.57;;;0.60;;
43435;SDS011;36399;51.444;-2.018;2023-02-18T08:19:33;1.47;;;0.40;;
43435;SDS011;36399;51.444;-2.018;2023-02-18T08:22:01;1.30;;;0.40;;
43435;SDS011;36399;51.444;-2.018;2023-02-18T08:24:28;1.07;;;0.40;;
43435;SDS011;36399;51.444;-2.018;2023-02-18T08:26:54;1.57;;;0.27;;
43435;SDS011;36399;51.444;-2.018;2023-02-18T08:29:19;1.20;;;0.40;;
43435;SDS011;36399;51.444;-2.018;2023-02-18T08:31:45;1.77;;;0.27;;
43435;SDS011;36399;51.444;-2.018;2023-02-18T08:34:11;2.13;;;0.50;;
43435;SDS011;36399;51.444;-2.018;2023-02-18T08:36:37;0.90;;;0.30;;
43435;SDS011;36399;51.444;-2.018;2023-02-18T08:39:03;0.50;;;0.10;;
43435;SDS011;36399;51.444;-2.018;2023-02-18T08:41:29;0.50;;;0.20;;
43435;SDS011;36399;51.444;-2.018;2023-02-18T08:43:55;0.87;;;0.20;;
43435;SDS011;36399;51.444;-2.018;2023-02-18T08:46:21;1.07;;;0.67;;
43435;SDS011;36399;51.444;-2.018;2023-02-18T08:48:47;0.13;;;0.10;;
43435;SDS011;36399;51.444;-2.018;2023-02-18T08:51:17;2.00;;;0.40;;
43435;SDS011;36399;51.444;-2.018;2023-02-18T08:53:45;2.73;;;0.40;;
43435;SDS011;36399;51.444;-2.018;2023-02-18T08:56:13;3.70;;;0.40;;
43435;SDS011;36399;51.444;-2.018;2023-02-18T08:58:40;2.23;;;0.50;;
43435;SDS011;36399;51.444;-2.018;2023-02-18T09:01:07;1.67;;;0.40;;
43435;SDS011;36399;51.444;-2.018;2023-02-18T09:03:35;0.43;;;0.10;;
43435;SDS011;36399;51.444;-2.018;2023-02-18T09:06:02;3.57;;;0.40;;
43435;SDS011;36399;51.444;-2.018;2023-02-18T09:08:28;3.40;;;1.33;;
43435;SDS011;36399;51.444;-2.018;2023-02-18T09:10:59;1.17;;;0.40;;
43435;SDS011;36399;51.444;-2.018;2023-02-18T09:13:29;2.20;;;0.60;;
43435;SDS011;36399;51.444;-2.018;2023-02-18T09:15:58;6.30;;;0.53;;
43435;SDS011;36399;51.444;-2.018;2023-02-18T09:18:26;0.60;;;0.20;;
43435;SDS011;36399;51.444;-2.018;2023-02-18T09:20:54;2.43;;;0.40;;
43435;SDS011;36399;51.444;-2.018;2023-02-18T09:23:23;1.23;;;0.50;;
43435;SDS011;36399;51.444;-2.018;2023-02-18T09:25:50;0.57;;;0.20;;
43435;SDS011;36399;51.444;-2.018;2023-02-18T09:28:16;2.07;;;0.40;;
43435;SDS011;36399;51.444;-2.018;2023-02-18T09:30:42;1.10;;;0.40;;
43435;SDS011;36399;51.444;-2.018;2023-02-18T09:33:08;1.33;;;0.40;;
43435;SDS011;36399;51.444;-2.018;2023-02-18T09:35:37;1.80;;;0.30;;
43435;SDS011;36399;51.444;-2.018;2023-02-18T09:38:05;1.57;;;0.33;;
43435;SDS011;36399;51.444;-2.018;2023-02-18T09:40:32;1.93;;;0.40;;
43435;SDS011;36399;51.444;-2.018;2023-02-18T09:43:03;2.10;;;0.57;;
43435;SDS011;36399;51.444;-2.018;2023-02-18T09:45:29;4.00;;;0.93;;
43435;SDS011;36399;51.444;-2.018;2023-02-18T09:47:55;0.73;;;0.20;;
43435;SDS011;36399;51.444;-2.018;2023-02-18T09:50:31;0.80;;;0.30;;
43435;SDS011;36399;51.444;-2.018;2023-02-18T09:52:58;1.30;;;0.23;;
43435;SDS011;36399;51.444;-2.018;2023-02-18T09:55:34;1.20;;;0.30;;
43435;SDS011;36399;51.444;-2.018;2023-02-18T09:58:06;0.90;;;0.20;;
43435;SDS011;36399;51.444;-2.018;2023-02-18T10:00:45;4.70;;;0.83;;
43435;SDS011;36399;51.444;-2.018;2023-02-18T10:08:44;2.97;;;0.47;;
43435;SDS011;36399;51.444;-2.018;2023-02-18T10:11:13;1.10;;;0.30;;
43435;SDS011;36399;51.444;-2.018;2023-02-18T10:13:41;3.20;;;0.57;;
43435;SDS011;36399;51.444;-2.018;2023-02-18T10:16:11;2.70;;;0.53;;
43435;SDS011;36399;51.444;-2.018;2023-02-18T10:18:42;1.30;;;0.30;;
43435;SDS011;36399;51.444;-2.018;2023-02-18T10:21:11;2.37;;;0.30;;
43435;SDS011;36399;51.444;-2.018;2023-02-18T10:23:46;1.93;;;0.50;;
43435;SDS011;36399;51.444;-2.018;2023-02-18T10:26:16;2.77;;;0.53;;
43435;SDS011;36399;51.444;-2.018;2023-02-18T10:28:44;3.37;;;0.53;;
43435;SDS011;36399;51.444;-2.018;2023-02-18T10:31:13;1.60;;;1.17;;
43435;SDS011;36399;51.444;-2.018;2023-02-18T10:33:45;1.40;;;0.70;;
43435;SDS011;36399;51.444;-2.018;2023-02-18T10:36:26;1.13;;;0.40;;
43435;SDS011;36399;51.444;-2.018;2023-02-18T10:39:00;1.03;;;0.30;;
43435;SDS011;36399;51.444;-2.018;2023-02-18T10:47:25;0.80;;;0.17;;
43435;SDS011;36399;51.444;-2.018;2023-02-18T10:52:19;2.10;;;0.70;;
43435;SDS011;36399;51.444;-2.018;2023-02-18T10:55:05;1.30;;;0.50;;
43435;SDS011;36399;51.444;-2.018;2023-02-18T10:57:50;3.50;;;0.50;;
43435;SDS011;36399;51.444;-2.018;2023-02-18T11:05:49;1.80;;;0.50;;
43435;SDS011;36399;51.444;-2.018;2023-02-18T11:08:21;3.97;;;1.23;;
43435;SDS011;36399;51.444;-2.018;2023-02-18T11:10:51;2.90;;;0.70;;
43435;SDS011;36399;51.444;-2.018;2023-02-18T11:13:26;3.37;;;1.23;;
43435;SDS011;36399;51.444;-2.018;2023-02-18T11:15:59;2.10;;;0.60;;
43435;SDS011;36399;51.444;-2.018;2023-02-18T11:21:03;2.33;;;0.90;;
43435;SDS011;36399;51.444;-2.018;2023-02-18T11:23:49;9.70;;;1.47;;
43435;SDS011;36399;51.444;-2.018;2023-02-18T11:26:17;1.00;;;0.40;;
43435;SDS011;36399;51.444;-2.018;2023-02-18T11:28:51;6.03;;;0.97;;
43435;SDS011;36399;51.444;-2.018;2023-02-18T11:31:25;3.43;;;0.53;;
43435;SDS011;36399;51.444;-2.018;2023-02-18T11:34:01;5.77;;;1.47;;
43435;SDS011;36399;51.444;-2.018;2023-02-18T11:36:29;1.33;;;0.67;;
43435;SDS011;36399;51.444;-2.018;2023-02-18T11:38:58;3.47;;;0.80;;
43435;SDS011;36399;51.444;-2.018;2023-02-18T11:44:31;3.07;;;0.53;;
43435;SDS011;36399;51.444;-2.018;2023-02-18T11:47:04;5.27;;;1.10;;
43435;SDS011;36399;51.444;-2.018;2023-02-18T11:49:30;4.23;;;1.20;;
43435;SDS011;36399;51.444;-2.018;2023-02-18T11:52:13;2.30;;;0.50;;
43435;SDS011;36399;51.444;-2.018;2023-02-18T11:54:40;4.30;;;1.27;;
43435;SDS011;36399;51.444;-2.018;2023-02-18T11:57:09;3.63;;;0.70;;
43435;SDS011;36399;51.444;-2.018;2023-02-18T11:59:39;3.40;;;0.60;;
43435;SDS011;36399;51.444;-2.018;2023-02-18T12:05:20;4.53;;;0.70;;
43435;SDS011;36399;51.444;-2.018;2023-02-18T12:07:44;1.80;;;0.47;;
43435;SDS011;36399;51.444;-2.018;2023-02-18T12:10:17;0.67;;;0.50;;
43435;SDS011;36399;51.444;-2.018;2023-02-18T12:13:02;4.87;;;0.83;;
43435;SDS011;36399;51.444;-2.018;2023-02-18T12:15:43;3.83;;;0.83;;
43435;SDS011;36399;51.444;-2.018;2023-02-18T12:26:13;2.17;;;1.47;;
43435;SDS011;36399;51.444;-2.018;2023-02-18T12:28:59;2.33;;;0.43;;
43435;SDS011;36399;51.444;-2.018;2023-02-18T12:31:48;2.60;;;0.70;;
43435;SDS011;36399;51.444;-2.018;2023-02-18T12:34:25;2.30;;;0.40;;
43435;SDS011;36399;51.444;-2.018;2023-02-18T12:42:35;0.93;;;0.20;;
43435;SDS011;36399;51.444;-2.018;2023-02-18T12:53:24;1.60;;;0.47;;
43435;SDS011;36399;51.444;-2.018;2023-02-18T13:10:17;3.80;;;0.60;;
43435;SDS011;36399;51.444;-2.018;2023-02-18T13:12:55;2.73;;;0.60;;
43435;SDS011;36399;51.444;-2.018;2023-02-18T13:15:36;1.53;;;0.50;;
43435;SDS011;36399;51.444;-2.018;2023-02-18T13:18:17;2.20;;;0.60;;
43435;SDS011;36399;51.444;-2.018;2023-02-18T13:23:52;1.83;;;0.40;;
43435;SDS011;36399;51.444;-2.018;2023-02-18T13:26:21;2.80;;;0.70;;
43435;SDS011;36399;51.444;-2.018;2023-02-18T13:37:44;0.90;;;0.30;;
43435;SDS011;36399;51.444;-2.018;2023-02-18T13:40:25;3.63;;;0.67;;
43435;SDS011;36399;51.444;-2.018;2023-02-18T13:43:15;2.57;;;0.90;;
43435;SDS011;36399;51.444;-2.018;2023-02-18T13:46:00;2.93;;;1.27;;
43435;SDS011;36399;51.444;-2.018;2023-02-18T13:51:28;3.33;;;0.70;;
43435;SDS011;36399;51.444;-2.018;2023-02-18T13:56:38;2.70;;;0.50;;
43435;SDS011;36399;51.444;-2.018;2023-02-18T13:59:08;1.63;;;0.50;;
43435;SDS011;36399;51.444;-2.018;2023-02-18T14:01:42;6.07;;;0.70;;
43435;SDS011;36399;51.444;-2.018;2023-02-18T14:09:42;2.63;;;0.70;;
43435;SDS011;36399;51.444;-2.018;2023-02-18T14:12:16;4.13;;;1.03;;
43435;SDS011;36399;51.444;-2.018;2023-02-18T14:17:43;4.07;;;1.27;;
43435;SDS011;36399;51.444;-2.018;2023-02-18T14:36:41;3.10;;;0.40;;
43435;SDS011;36399;51.444;-2.018;2023-02-18T14:42:26;2.50;;;0.37;;
43435;SDS011;36399;51.444;-2.018;2023-02-18T14:50:53;3.13;;;0.63;;
43435;SDS011;36399;51.444;-2.018;2023-02-18T14:53:22;6.13;;;1.03;;
43435;SDS011;36399;51.444;-2.018;2023-02-18T14:55:52;5.80;;;1.40;;
43435;SDS011;36399;51.444;-2.018;2023-02-18T14:58:28;4.13;;;0.60;;
43435;SDS011;36399;51.444;-2.018;2023-02-18T15:00:57;4.03;;;1.17;;
43435;SDS011;36399;51.444;-2.018;2023-02-18T15:03:24;4.00;;;1.53;;
43435;SDS011;36399;51.444;-2.018;2023-02-18T15:05:51;11.40;;;1.80;;
43435;SDS011;36399;51.444;-2.018;2023-02-18T15:08:24;9.53;;;1.10;;
43435;SDS011;36399;51.444;-2.018;2023-02-18T15:10:51;13.27;;;1.17;;
43435;SDS011;36399;51.444;-2.018;2023-02-18T15:13:25;8.60;;;1.47;;
43435;SDS011;36399;51.444;-2.018;2023-02-18T15:15:56;8.00;;;1.87;;
43435;SDS011;36399;51.444;-2.018;2023-02-18T15:18:35;8.33;;;1.10;;
43435;SDS011;36399;51.444;-2.018;2023-02-18T15:21:35;6.17;;;1.70;;
43435;SDS011;36399;51.444;-2.018;2023-02-18T15:24:05;5.20;;;1.40;;
43435;SDS011;36399;51.444;-2.018;2023-02-18T15:26:34;6.07;;;1.90;;
43435;SDS011;36399;51.444;-2.018;2023-02-18T15:29:11;8.37;;;1.77;;
43435;SDS011;36399;51.444;-2.018;2023-02-18T15:31:43;6.20;;;1.23;;
43435;SDS011;36399;51.444;-2.018;2023-02-18T15:36:59;10.53;;;1.77;;
43435;SDS011;36399;51.444;-2.018;2023-02-18T15:39:27;6.30;;;1.80;;
43435;SDS011;36399;51.444;-2.018;2023-02-18T15:41:58;2.83;;;1.03;;
43435;SDS011;36399;51.444;-2.018;2023-02-18T15:44:28;4.77;;;1.50;;
43435;SDS011;36399;51.444;-2.018;2023-02-18T15:47:04;5.43;;;1.13;;
43435;SDS011;36399;51.444;-2.018;2023-02-18T15:49:33;7.90;;;2.10;;
43435;SDS011;36399;51.444;-2.018;2023-02-18T15:52:03;5.07;;;1.67;;
43435;SDS011;36399;51.444;-2.018;2023-02-18T15:54:30;2.90;;;1.30;;
43435;SDS011;36399;51.444;-2.018;2023-02-18T15:56:59;3.10;;;1.00;;
43435;SDS011;36399;51.444;-2.018;2023-02-18T15:59:29;4.80;;;0.80;;
43435;SDS011;36399;51.444;-2.018;2023-02-18T16:02:08;9.20;;;1.90;;
43435;SDS011;36399;51.444;-2.018;2023-02-18T16:04:41;10.13;;;2.43;;
43435;SDS011;36399;51.444;-2.018;2023-02-18T16:09:46;6.93;;;1.70;;
43435;SDS011;36399;51.444;-2.018;2023-02-18T16:12:18;5.83;;;1.60;;
43435;SDS011;36399;51.444;-2.018;2023-02-18T16:14:56;7.47;;;2.63;;
43435;SDS011;36399;51.444;-2.018;2023-02-18T16:17:26;12.17;;;2.80;;
43435;SDS011;36399;51.444;-2.018;2023-02-18T16:19:55;10.57;;;2.33;;
43435;SDS011;36399;51.444;-2.018;2023-02-18T16:25:00;8.43;;;1.40;;
43435;SDS011;36399;51.444;-2.018;2023-02-18T16:27:33;7.13;;;1.83;;
43435;SDS011;36399;51.444;-2.018;2023-02-18T16:30:23;12.60;;;3.07;;
43435;SDS011;36399;51.444;-2.018;2023-02-18T16:32:53;6.23;;;2.80;;
43435;SDS011;36399;51.444;-2.018;2023-02-18T16:35:20;5.50;;;1.40;;
43435;SDS011;36399;51.444;-2.018;2023-02-18T16:37:47;10.37;;;2.27;;
43435;SDS011;36399;51.444;-2.018;2023-02-18T16:42:52;6.43;;;1.13;;
43435;SDS011;36399;51.444;-2.018;2023-02-18T16:45:19;9.07;;;1.80;;
43435;SDS011;36399;51.444;-2.018;2023-02-18T16:47:47;8.87;;;2.77;;
43435;SDS011;36399;51.444;-2.018;2023-02-18T16:50:18;6.50;;;1.37;;
43435;SDS011;36399;51.444;-2.018;2023-02-18T16:52:47;7.23;;;1.83;;
43435;SDS011;36399;51.444;-2.018;2023-02-18T16:55:20;13.00;;;2.63;;
43435;SDS011;36399;51.444;-2.018;2023-02-18T16:57:49;9.73;;;3.20;;
43435;SDS011;36399;51.444;-2.018;2023-02-18T17:00:16;12.53;;;3.20;;
43435;SDS011;36399;51.444;-2.018;2023-02-18T17:02:43;13.63;;;3.27;;
43435;SDS011;36399;51.444;-2.018;2023-02-18T17:05:19;6.67;;;1.30;;
43435;SDS011;36399;51.444;-2.018;2023-02-18T17:07:48;7.33;;;1.27;;
43435;SDS011;36399;51.444;-2.018;2023-02-18T17:10:14;17.90;;;2.97;;
43435;SDS011;36399;51.444;-2.018;2023-02-18T17:12:40;5.50;;;1.37;;
43435;SDS011;36399;51.444;-2.018;2023-02-18T17:17:48;15.93;;;3.30;;
43435;SDS011;36399;51.444;-2.018;2023-02-18T17:20:14;7.77;;;2.03;;
43435;SDS011;36399;51.444;-2.018;2023-02-18T17:22:40;12.40;;;3.13;;
43435;SDS011;36399;51.444;-2.018;2023-02-18T17:25:11;10.67;;;2.03;;
43435;SDS011;36399;51.444;-2.018;2023-02-18T17:27:42;13.80;;;2.50;;
43435;SDS011;36399;51.444;-2.018;2023-02-18T17:30:08;7.03;;;2.10;;
43435;SDS011;36399;51.444;-2.018;2023-02-18T17:32:34;11.40;;;1.90;;
43435;SDS011;36399;51.444;-2.018;2023-02-18T17:35:00;6.77;;;1.93;;
43435;SDS011;36399;51.444;-2.018;2023-02-18T17:37:26;13.30;;;3.63;;
43435;SDS011;36399;51.444;-2.018;2023-02-18T17:39:52;10.37;;;2.13;;
43435;SDS011;36399;51.444;-2.018;2023-02-18T17:42:19;14.20;;;2.57;;